Time;durP1;ratioP1;P1;durP2;ratioP2;P2;SDS_P1;SDS_P2;PMS_P1;PMS_P2;Temp;Humidity;BMP_temperature;BMP_pressure;BME280_temperature;BME280_humidity;BME280_pressure;Samples;Min_cycle;Max_cycle;Signal;HPM_P1;HPM_P2
2024/04/09 00:01:17;;;;;;;;;;;;;;;16.66;53.43;95442.13;5504552;26;19961;-71
2024/04/09 00:03:43;;;;;;;;;;;;;;;16.63;53.39;95438.16;5504461;26;20162;-71
2024/04/09 00:06:14;;;;;;;;;;;;;;;16.61;52.89;95432.38;5505320;26;20058;-75
2024/04/09 00:08:44;;;;;;;;;;;;;;;16.61;51.35;95429.75;5504474;26;19984;-69
2024/04/09 00:11:21;;;;;;;;;;;;;;;16.57;52.10;95423.44;5505194;26;20180;-69
2024/04/09 00:13:47;;;;;;;;;;;;;;;16.54;53.28;95427.41;5505333;26;19961;-69
2024/04/09 00:16:13;;;;;;;;;;;;;;;16.50;52.81;95429.03;5504627;26;19971;-69
2024/04/09 00:18:39;;;;;;;;;;;;;;;16.47;53.31;95429.59;5505144;26;19960;-70
2024/04/09 00:21:05;;;;;;;;;;;;;;;16.44;54.13;95425.66;5505124;26;19990;-69
2024/04/09 00:23:31;;;;;;;;;;;;;;;16.42;54.26;95424.34;5505079;26;20031;-70
2024/04/09 00:25:56;;;;;;;;;;;;;;;16.41;54.94;95420.13;5505069;26;19972;-85
2024/04/09 00:28:22;;;;;;;;;;;;;;;16.38;54.80;95421.47;5504880;26;20075;-75
2024/04/09 00:30:50;;;;;;;;;;;;;;;16.37;55.22;95429.69;5504981;26;20027;-75
2024/04/09 00:33:17;;;;;;;;;;;;;;;16.35;55.42;95411.44;5504958;26;19954;-74
2024/04/09 00:35:43;;;;;;;;;;;;;;;16.35;54.31;95421.25;5503995;26;19977;-75
2024/04/09 00:38:14;;;;;;;;;;;;;;;16.34;54.77;95425.75;5504860;26;19947;-75
2024/04/09 00:40:42;;;;;;;;;;;;;;;16.36;55.06;95423.63;5504788;26;20078;-75
2024/04/09 00:43:08;;;;;;;;;;;;;;;16.36;55.97;95425.47;5504339;26;19967;-70
2024/04/09 00:45:35;;;;;;;;;;;;;;;16.36;55.97;95428.91;5504711;26;19950;-69
2024/04/09 00:48:01;;;;;;;;;;;;;;;16.37;56.04;95421.75;5504686;26;19970;-70
2024/04/09 00:50:27;;;;;;;;;;;;;;;16.36;56.74;95418.31;5504731;26;19951;-70
2024/04/09 00:52:55;;;;;;;;;;;;;;;16.36;57.85;95410.41;5504607;26;19974;-70
2024/04/09 00:55:25;;;;;;;;;;;;;;;16.34;57.46;95407.25;5504644;26;20177;-69
2024/04/09 00:57:52;;;;;;;;;;;;;;;16.33;57.91;95416.22;5504555;26;19953;-70
2024/04/09 01:00:19;;;;;;;;;;;;;;;16.34;50.89;95414.41;5504527;26;19946;-69
2024/04/09 01:02:48;;;;;;;;;;;;;;;16.35;52.94;95411.44;5504494;26;19942;-70
2024/04/09 01:05:15;;;;;;;;;;;;;;;16.38;54.99;95416.19;5504559;26;20189;-69
2024/04/09 01:07:42;;;;;;;;;;;;;;;16.42;54.62;95424.34;5504431;26;20012;-70
2024/04/09 01:10:08;;;;;;;;;;;;;;;16.42;54.26;95417.22;5504347;26;20139;-69
2024/04/09 01:12:33;;;;;;;;;;;;;;;16.42;56.76;95411.13;5504328;26;19967;-69
2024/04/09 01:14:59;;;;;;;;;;;;;;;16.41;57.20;95420.91;5504298;26;19972;-70
2024/04/09 01:17:27;;;;;;;;;;;;;;;16.41;57.50;95420.91;5504310;26;19954;-70
2024/04/09 01:19:53;;;;;;;;;;;;;;;16.39;57.05;95422.25;5504242;26;19970;-68
2024/04/09 01:22:18;;;;;;;;;;;;;;;16.36;57.67;95420.97;5504257;26;20165;-68
2024/04/09 01:24:44;;;;;;;;;;;;;;;16.34;59.14;95420.47;5504237;26;19954;-68
2024/04/09 01:27:14;;;;;;;;;;;;;;;16.33;58.84;95418.09;5504043;26;19973;-68
2024/04/09 01:29:41;;;;;;;;;;;;;;;16.30;58.83;95422.09;5504101;26;19975;-68
2024/04/09 01:32:07;;;;;;;;;;;;;;;16.29;59.10;95425.00;5504001;26;19976;-68
2024/04/09 01:34:35;;;;;;;;;;;;;;;16.27;58.42;95427.94;5504029;26;19981;-68
2024/04/09 01:37:01;;;;;;;;;;;;;;;16.27;58.94;95435.06;5504014;26;19945;-68
2024/04/09 01:39:27;;;;;;;;;;;;;;;16.24;58.92;95429.28;5503098;26;19963;-69
2024/04/09 01:41:53;;;;;;;;;;;;;;;16.23;59.33;95414.50;5503932;26;19967;-69
2024/04/09 01:44:19;;;;;;;;;;;;;;;16.22;60.26;95420.03;5503965;26;20156;-70
2024/04/09 01:46:48;;;;;;;;;;;;;;;16.20;60.21;95422.19;5502990;26;19976;-70
2024/04/09 01:49:14;;;;;;;;;;;;;;;16.18;62.06;95435.69;5503902;26;19970;-69
2024/04/09 01:51:40;;;;;;;;;;;;;;;16.17;61.58;95449.19;5472477;26;19981;-69
2024/04/09 01:54:06;;;;;;;;;;;;;;;16.16;60.11;95440.44;5502440;26;19962;-69
2024/04/09 01:56:32;;;;;;;;;;;;;;;16.16;59.49;95447.59;5503734;26;20076;-68
2024/04/09 01:58:58;;;;;;;;;;;;;;;16.16;60.38;95450.25;5503776;26;19979;-67
2024/04/09 02:01:24;;;;;;;;;;;;;;;16.15;58.54;95438.88;5503640;26;19965;-75
2024/04/09 02:03:55;;;;;;;;;;;;;;;16.13;60.23;95443.66;5502760;26;19958;-75
2024/04/09 02:06:22;;;;;;;;;;;;;;;16.10;60.68;95446.06;5502662;26;19997;-75
2024/04/09 02:08:50;;;;;;;;;;;;;;;16.08;61.98;95442.91;5503432;26;19954;-75
2024/04/09 02:11:16;;;;;;;;;;;;;;;16.07;61.55;95451.94;5503568;26;19953;-75
2024/04/09 02:13:42;;;;;;;;;;;;;;;16.05;61.43;95446.13;5503404;26;20198;-75
2024/04/09 02:16:10;;;;;;;;;;;;;;;16.04;60.11;95447.94;5503474;26;19957;-72
2024/04/09 02:18:37;;;;;;;;;;;;;;;16.04;59.74;95447.94;5503446;26;20072;-69
2024/04/09 02:21:07;;;;;;;;;;;;;;;16.03;59.43;95438.47;5503459;26;20179;-69
2024/04/09 02:23:33;;;;;;;;;;;;;;;16.03;59.86;95441.09;5503299;26;19958;-70
2024/04/09 02:25:59;;;;;;;;;;;;;;;16.00;60.71;95439.81;5503322;26;20039;-69
2024/04/09 02:28:25;;;;;;;;;;;;;;;15.97;61.35;95444.84;5503140;26;20088;-69
2024/04/09 02:30:51;;;;;;;;;;;;;;;15.93;61.23;95447.25;5503188;26;19968;-69
2024/04/09 02:33:17;;;;;;;;;;;;;;;15.90;61.32;95445.16;5503226;26;19947;-69
2024/04/09 02:35:56;;;;;;;;;;;;;;;15.87;60.73;95451.00;5503167;26;19971;-69
2024/04/09 02:38:23;;;;;;;;;;;;;;;15.85;60.25;95445.19;5502255;26;20174;-67
2024/04/09 02:40:49;;;;;;;;;;;;;;;15.83;60.97;95448.13;5503027;26;20331;-67
2024/04/09 02:43:15;;;;;;;;;;;;;;;15.81;61.55;95449.44;5502987;26;19965;-67
2024/04/09 02:45:41;;;;;;;;;;;;;;;15.78;61.66;95461.38;5502913;26;19976;-68
2024/04/09 02:48:06;;;;;;;;;;;;;;;15.73;61.56;95448.19;5502973;26;20015;-67
2024/04/09 02:50:32;;;;;;;;;;;;;;;15.70;62.81;95461.91;5502807;26;19949;-67
2024/04/09 02:52:58;;;;;;;;;;;;;;;15.66;62.55;95474.09;5502775;26;20018;-75
2024/04/09 02:55:24;;;;;;;;;;;;;;;15.63;59.74;95472.00;5502794;26;20020;-69
2024/04/09 02:57:50;;;;;;;;;;;;;;;15.60;60.53;95468.06;5502688;26;19946;-69
2024/04/09 03:00:19;;;;;;;;;;;;;;;15.57;61.03;95473.88;5502644;26;19948;-69
2024/04/09 03:02:49;;;;;;;;;;;;;;;15.56;62.35;95484.72;5502604;26;19947;-69
2024/04/09 03:05:15;;;;;;;;;;;;;;;15.55;62.51;95488.44;5504437;26;19971;-69
2024/04/09 03:07:42;;;;;;;;;;;;;;;15.52;63.60;95494.28;5506266;26;19950;-69
2024/04/09 03:10:13;;;;;;;;;;;;;;;15.49;64.14;95492.94;5505406;26;20071;-75
2024/04/09 03:12:42;;;;;;;;;;;;;;;15.46;64.66;95503.31;5506093;26;19967;-73
2024/04/09 03:15:08;;;;;;;;;;;;;;;15.41;63.99;95491.69;5506160;26;19955;-84
2024/04/09 03:17:34;;;;;;;;;;;;;;;15.38;63.76;95492.22;5505806;26;19949;-84
2024/04/09 03:20:00;;;;;;;;;;;;;;;15.35;64.43;95489.31;5506063;26;19954;-84
2024/04/09 03:22:26;;;;;;;;;;;;;;;15.32;65.95;95495.94;5506097;26;19971;-84
2024/04/09 03:24:52;;;;;;;;;;;;;;;15.28;65.88;95486.19;5505936;26;19965;-84
2024/04/09 03:27:18;;;;;;;;;;;;;;;15.21;64.84;95478.56;5504912;26;19981;-84
2024/04/09 03:29:47;;;;;;;;;;;;;;;15.13;64.80;95466.72;5505933;26;19993;-71
2024/04/09 03:32:13;;;;;;;;;;;;;;;15.05;65.94;95479.69;5505781;26;19945;-67
2024/04/09 03:34:39;;;;;;;;;;;;;;;15.01;65.59;95488.16;5505777;26;20185;-67
2024/04/09 03:37:05;;;;;;;;;;;;;;;15.00;64.77;95498.97;5505804;26;19949;-66
2024/04/09 03:39:30;;;;;;;;;;;;;;;14.99;65.20;95507.94;5505772;26;19943;-68
2024/04/09 03:41:56;;;;;;;;;;;;;;;14.98;65.98;95499.22;5505710;26;19953;-67
2024/04/09 03:44:22;;;;;;;;;;;;;;;14.99;65.93;95497.38;5505679;26;19974;-67
2024/04/09 03:46:48;;;;;;;;;;;;;;;14.99;67.15;95494.75;5505618;26;19955;-70
2024/04/09 03:49:14;;;;;;;;;;;;;;;14.98;67.29;95509.00;5505628;26;20045;-75
2024/04/09 03:51:40;;;;;;;;;;;;;;;14.99;67.87;95515.88;5505460;26;19961;-85
2024/04/09 03:54:09;;;;;;;;;;;;;;;14.98;68.39;95516.94;5505576;26;19975;-85
2024/04/09 03:56:34;;;;;;;;;;;;;;;14.96;67.86;95522.47;5505498;26;19964;-85
2024/04/09 03:59:00;;;;;;;;;;;;;;;14.96;67.27;95534.88;5505564;26;19945;-84
2024/04/09 04:01:26;;;;;;;;;;;;;;;14.93;68.44;95545.97;5505495;26;19943;-85
2024/04/09 04:03:53;;;;;;;;;;;;;;;14.93;69.85;95559.97;5504533;26;19947;-84
2024/04/09 04:06:18;;;;;;;;;;;;;;;14.91;67.88;95556.81;5505406;26;20074;-84
2024/04/09 04:08:45;;;;;;;;;;;;;;;14.90;66.20;95555.22;5505283;26;20016;-74
2024/04/09 04:11:12;;;;;;;;;;;;;;;14.91;67.96;95551.53;5504446;26;19954;-74
2024/04/09 04:13:38;;;;;;;;;;;;;;;14.93;68.13;95556.53;5505162;26;20076;-75
2024/04/09 04:16:05;;;;;;;;;;;;;;;14.94;68.56;95558.13;5504359;26;19951;-75
2024/04/09 04:18:39;;;;;;;;;;;;;;;14.93;67.93;95557.34;5505274;26;19951;-75
2024/04/09 04:21:05;;;;;;;;;;;;;;;14.93;69.33;95569.72;5505164;26;19955;-74
2024/04/09 04:23:31;;;;;;;;;;;;;;;14.91;69.21;95571.84;5505212;26;19949;-68
2024/04/09 04:26:04;;;;;;;;;;;;;;;14.89;69.53;95579.22;5505156;26;20169;-69
2024/04/09 04:28:33;;;;;;;;;;;;;;;14.83;69.64;95573.19;5504991;26;20019;-67
2024/04/09 04:31:00;;;;;;;;;;;;;;;14.79;70.72;95575.56;5505093;26;19950;-67
2024/04/09 04:33:27;;;;;;;;;;;;;;;14.76;70.87;95564.75;5504974;26;20046;-67
2024/04/09 04:35:53;;;;;;;;;;;;;;;14.74;71.65;95564.22;5504920;26;20096;-67
2024/04/09 04:38:19;;;;;;;;;;;;;;;14.70;70.89;95571.88;5504993;26;19948;-67
2024/04/09 04:40:45;;;;;;;;;;;;;;;14.69;72.21;95586.13;5504919;26;19956;-67
2024/04/09 04:43:12;;;;;;;;;;;;;;;14.67;72.68;95598.78;5504947;26;19951;-69
2024/04/09 04:45:37;;;;;;;;;;;;;;;14.66;71.68;95599.03;5504846;26;20178;-73
2024/04/09 04:48:04;;;;;;;;;;;;;;;14.67;72.20;95619.13;5504813;26;19961;-72
2024/04/09 04:50:30;;;;;;;;;;;;;;;14.66;71.78;95615.69;5503909;26;19971;-72
2024/04/09 04:52:56;;;;;;;;;;;;;;;14.65;72.01;95621.22;5504684;26;20163;-72
2024/04/09 04:55:24;;;;;;;;;;;;;;;14.61;72.90;95619.13;5504747;26;19977;-73
2024/04/09 04:57:50;;;;;;;;;;;;;;;14.59;73.84;95617.78;5504688;26;19954;-72
2024/04/09 05:00:16;;;;;;;;;;;;;;;14.56;73.85;95615.69;5503859;26;20013;-70
2024/04/09 05:02:42;;;;;;;;;;;;;;;14.54;74.13;95613.28;5504628;26;19955;-73
2024/04/09 05:05:08;;;;;;;;;;;;;;;14.54;74.99;95623.03;5504591;26;19965;-68
2024/04/09 05:07:34;;;;;;;;;;;;;;;14.53;74.97;95637.28;5504498;26;19979;-70
2024/04/09 05:10:00;;;;;;;;;;;;;;;14.51;75.05;95640.19;5504464;26;20014;-69
2024/04/09 05:12:26;;;;;;;;;;;;;;;14.49;75.26;95642.31;5504410;26;20163;-69
2024/04/09 05:14:52;;;;;;;;;;;;;;;14.45;74.17;95645.69;5504502;26;19966;-69
2024/04/09 05:17:18;;;;;;;;;;;;;;;14.42;75.81;95657.56;5504425;26;19947;-68
2024/04/09 05:19:44;;;;;;;;;;;;;;;14.40;76.79;95663.13;5504369;26;19957;-84
2024/04/09 05:22:11;;;;;;;;;;;;;;;14.40;79.09;95681.59;5503548;26;20160;-74
2024/04/09 05:24:39;;;;;;;;;;;;;;;14.40;79.69;95680.78;5504219;26;19954;-75
2024/04/09 05:27:05;;;;;;;;;;;;;;;14.39;75.13;95677.34;5504095;26;19949;-74
2024/04/09 05:29:31;;;;;;;;;;;;;;;14.39;77.24;95700.31;5503404;26;19973;-74
2024/04/09 05:31:57;;;;;;;;;;;;;;;14.39;77.54;95709.00;5504180;26;19969;-74
2024/04/09 05:34:23;;;;;;;;;;;;;;;14.41;78.88;95708.75;5504022;26;19953;-74
2024/04/09 05:36:48;;;;;;;;;;;;;;;14.44;78.63;95705.59;5504052;26;19949;-84
2024/04/09 05:39:16;;;;;;;;;;;;;;;14.48;75.33;95698.75;5504065;26;20136;-69
2024/04/09 05:41:42;;;;;;;;;;;;;;;14.57;77.01;95704.31;5503974;26;19972;-72
2024/04/09 05:44:08;;;;;;;;;;;;;;;14.65;77.77;95710.94;5504037;26;19954;-72
2024/04/09 05:46:35;;;;;;;;;;;;;;;14.73;79.24;95721.00;5503883;26;19965;-73
2024/04/09 05:49:01;;;;;;;;;;;;;;;14.80;79.37;95706.50;5503077;26;19971;-72
2024/04/09 05:51:27;;;;;;;;;;;;;;;14.92;78.82;95719.41;5502956;26;20082;-72
2024/04/09 05:53:53;;;;;;;;;;;;;;;15.07;79.66;95731.84;5502953;26;19972;-72
2024/04/09 05:56:18;;;;;;;;;;;;;;;15.26;75.66;95731.31;5503788;26;19945;-72
2024/04/09 05:58:44;;;;;;;;;;;;;;;15.48;75.84;95729.19;5503837;26;19950;-69
2024/04/09 06:01:10;;;;;;;;;;;;;;;15.71;72.59;95727.84;5503705;26;19989;-69
2024/04/09 06:03:36;;;;;;;;;;;;;;;15.93;71.92;95730.16;5503706;26;19962;-70
2024/04/09 06:06:02;;;;;;;;;;;;;;;16.13;72.50;95729.31;5503635;26;19972;-69
2024/04/09 06:08:28;;;;;;;;;;;;;;;16.28;70.38;95728.47;5503455;26;20089;-69
2024/04/09 06:10:54;;;;;;;;;;;;;;;16.42;70.92;95729.47;5503501;26;19990;-69
2024/04/09 06:13:20;;;;;;;;;;;;;;;16.59;68.84;95723.81;5503405;26;20021;-68
2024/04/09 06:15:47;;;;;;;;;;;;;;;16.78;69.43;95733.78;5503378;26;19973;-75
2024/04/09 06:18:12;;;;;;;;;;;;;;;16.90;69.39;95736.88;5503557;26;19954;-83
2024/04/09 06:20:39;;;;;;;;;;;;;;;16.99;68.84;95735.25;5503384;26;19988;-83
2024/04/09 06:23:04;;;;;;;;;;;;;;;17.12;70.09;95752.38;5503382;26;19954;-83
2024/04/09 06:25:30;;;;;;;;;;;;;;;17.31;66.89;95759.66;5503330;26;20006;-82
2024/04/09 06:27:56;;;;;;;;;;;;;;;17.47;65.82;95762.94;5503168;26;19976;-83
2024/04/09 06:30:22;;;;;;;;;;;;;;;17.57;64.35;95758.34;5503121;26;19956;-83
2024/04/09 06:32:48;;;;;;;;;;;;;;;17.70;64.56;95754.28;5503138;26;20196;-69
2024/04/09 06:35:14;;;;;;;;;;;;;;;17.90;63.37;95753.28;5503145;26;20177;-73
2024/04/09 06:37:39;;;;;;;;;;;;;;;18.19;61.98;95755.13;5502161;26;20099;-73
2024/04/09 06:40:06;;;;;;;;;;;;;;;18.33;61.49;95758.66;5502349;26;19947;-73
2024/04/09 06:42:32;;;;;;;;;;;;;;;18.31;61.96;95757.34;5503048;26;19955;-73
2024/04/09 06:44:57;;;;;;;;;;;;;;;18.20;61.76;95770.72;5502920;26;19952;-73
2024/04/09 06:47:23;;;;;;;;;;;;;;;18.08;62.75;95778.31;5502914;26;19949;-73
2024/04/09 06:49:49;;;;;;;;;;;;;;;18.00;63.40;95779.72;5502054;26;19976;-73
2024/04/09 06:52:16;;;;;;;;;;;;;;;17.89;63.49;95774.78;5502013;26;20057;-68
2024/04/09 06:54:42;;;;;;;;;;;;;;;17.76;65.22;95774.34;5502903;26;19956;-73
2024/04/09 06:57:08;;;;;;;;;;;;;;;17.65;64.82;95792.22;5502982;26;19949;-73
2024/04/09 06:59:34;;;;;;;;;;;;;;;17.55;64.21;95792.28;5502967;26;19966;-73
2024/04/09 07:02:00;;;;;;;;;;;;;;;17.40;66.35;95800.38;5502914;26;19955;-73
2024/04/09 07:04:26;;;;;;;;;;;;;;;17.23;66.76;95808.72;5501976;26;19959;-73
2024/04/09 07:06:54;;;;;;;;;;;;;;;17.02;68.35;95821.31;5502823;26;19957;-73
2024/04/09 07:09:20;;;;;;;;;;;;;;;16.90;71.33;95821.63;5502884;26;20071;-69
2024/04/09 07:11:46;;;;;;;;;;;;;;;16.79;73.88;95828.81;5502825;26;19972;-73
2024/04/09 07:14:13;;;;;;;;;;;;;;;16.71;70.93;95823.28;5505427;26;19971;-82
2024/04/09 07:16:41;;;;;;;;;;;;;;;16.59;72.35;95832.34;5503324;26;20070;-82
2024/04/09 07:19:07;;;;;;;;;;;;;;;16.54;73.29;95847.44;5502547;26;19953;-82
2024/04/09 07:21:33;;;;;;;;;;;;;;;16.49;74.16;95853.56;5502254;26;19963;-82
2024/04/09 07:23:58;;;;;;;;;;;;;;;16.43;75.07;95866.00;5502518;26;19991;-82
2024/04/09 07:26:24;;;;;;;;;;;;;;;16.34;77.84;95872.13;5502026;26;20089;-82
2024/04/09 07:28:51;;;;;;;;;;;;;;;16.21;77.29;95884.84;5502187;26;20170;-69
2024/04/09 07:31:17;;;;;;;;;;;;;;;16.10;80.38;95891.19;5502111;26;19953;-67
2024/04/09 07:33:46;;;;;;;;;;;;;;;15.94;83.87;95913.44;5501972;26;19948;-67
2024/04/09 07:36:11;;;;;;;;;;;;;;;15.71;84.30;95912.88;5502000;26;19954;-68
2024/04/09 07:38:39;;;;;;;;;;;;;;;15.46;86.64;95926.06;5501945;26;19987;-67
2024/04/09 07:41:04;;;;;;;;;;;;;;;15.18;84.36;95936.00;5501854;26;19962;-68
2024/04/09 07:43:30;;;;;;;;;;;;;;;14.86;86.41;95951.97;5501860;26;19950;-68
2024/04/09 07:45:56;;;;;;;;;;;;;;;14.53;91.17;95961.78;5501779;26;20078;-68
2024/04/09 07:48:24;;;;;;;;;;;;;;;14.28;89.51;95986.16;5501857;26;19956;-73
2024/04/09 07:50:51;;;;;;;;;;;;;;;14.07;92.49;95982.56;5501749;26;19955;-68
2024/04/09 07:53:18;;;;;;;;;;;;;;;13.90;92.17;95999.31;5505217;26;19961;-67
2024/04/09 07:55:44;;;;;;;;;;;;;;;13.72;90.93;96010.97;5505477;26;19945;-67
2024/04/09 07:58:11;;;;;;;;;;;;;;;13.50;93.64;96011.03;5505498;26;19953;-67
2024/04/09 08:00:37;;;;;;;;;;;;;;;13.34;89.48;96012.69;5505450;26;20166;-67
2024/04/09 08:03:03;;;;;;;;;;;;;;;13.20;84.00;96006.94;5505413;26;20083;-67
2024/04/09 08:05:29;;;;;;;;;;;;;;;12.99;85.39;96026.16;5505417;26;19945;-83
2024/04/09 08:07:55;;;;;;;;;;;;;;;12.70;84.57;96013.13;5504396;26;20018;-69
2024/04/09 08:10:21;;;;;;;;;;;;;;;12.49;84.06;96027.81;5505222;26;19965;-69
2024/04/09 08:12:50;;;;;;;;;;;;;;;12.32;84.36;96030.44;5505166;26;19948;-70
2024/04/09 08:15:16;;;;;;;;;;;;;;;12.24;84.71;96046.66;5504269;26;19955;-69
2024/04/09 08:17:44;;;;;;;;;;;;;;;12.10;86.89;96071.63;5505216;26;19974;-69
2024/04/09 08:20:10;;;;;;;;;;;;;;;11.97;85.07;96060.38;5505184;26;19960;-69
2024/04/09 08:22:37;;;;;;;;;;;;;;;11.89;87.07;96071.25;5505120;26;19964;-68
2024/04/09 08:25:03;;;;;;;;;;;;;;;11.89;84.61;96086.25;5505044;26;19976;-69
2024/04/09 08:27:32;;;;;;;;;;;;;;;11.79;86.95;96113.06;5504820;26;20101;-70
2024/04/09 08:29:59;;;;;;;;;;;;;;;11.72;84.28;96109.78;5504110;26;19962;-69
2024/04/09 08:32:25;;;;;;;;;;;;;;;11.67;84.94;96131.47;5504908;26;19962;-69
2024/04/09 08:34:55;;;;;;;;;;;;;;;11.61;82.91;96132.41;5503884;26;19982;-70
2024/04/09 08:37:20;;;;;;;;;;;;;;;11.52;83.76;96145.09;5504094;26;20143;-70
2024/04/09 08:39:52;;;;;;;;;;;;;;;11.52;82.32;96160.06;5473542;26;19957;-70
2024/04/09 08:42:19;;;;;;;;;;;;;;;11.50;81.71;96162.13;5504814;26;19950;-67
2024/04/09 08:44:45;;;;;;;;;;;;;;;11.46;80.61;96155.72;5504067;26;20111;-82
2024/04/09 08:47:10;;;;;;;;;;;;;;;11.32;78.72;96145.47;5504830;26;19946;-82
2024/04/09 08:49:36;;;;;;;;;;;;;;;11.17;79.59;96172.19;5504733;26;19968;-83
2024/04/09 08:52:03;;;;;;;;;;;;;;;11.07;78.81;96160.66;5504745;26;19968;-81
2024/04/09 08:54:29;;;;;;;;;;;;;;;10.99;79.01;96161.00;5504418;26;19978;-83
2024/04/09 08:56:55;;;;;;;;;;;;;;;10.97;79.32;96164.63;5503750;26;19969;-83
2024/04/09 08:59:21;;;;;;;;;;;;;;;11.06;81.60;96193.16;5504606;26;19974;-69
2024/04/09 09:01:47;;;;;;;;;;;;;;;11.08;78.45;96191.13;5503624;26;19956;-74
2024/04/09 09:04:13;;;;;;;;;;;;;;;11.00;78.59;96194.88;5504218;26;20172;-74
2024/04/09 09:06:45;;;;;;;;;;;;;;;11.03;77.89;96202.31;5504431;26;19947;-74
2024/04/09 09:09:20;;;;;;;;;;;;;;;11.05;77.50;96218.63;5504354;26;19972;-74
2024/04/09 09:11:46;;;;;;;;;;;;;;;10.96;78.51;96210.28;5504425;26;19952;-75
2024/04/09 09:14:13;;;;;;;;;;;;;;;10.97;78.03;96216.31;5504339;26;19965;-74
2024/04/09 09:16:39;;;;;;;;;;;;;;;10.98;78.76;96220.53;5504318;26;19960;-75
2024/04/09 09:19:05;;;;;;;;;;;;;;;11.06;78.35;96232.53;5504392;26;20191;-82
2024/04/09 09:21:31;;;;;;;;;;;;;;;11.10;78.25;96255.47;5504300;26;19985;-72
2024/04/09 09:23:58;;;;;;;;;;;;;;;11.22;77.66;96254.72;5503982;26;19948;-72
2024/04/09 09:26:24;;;;;;;;;;;;;;;11.21;75.90;96251.25;5504017;26;19950;-72
2024/04/09 09:29:00;;;;;;;;;;;;;;;11.21;77.54;96253.09;5504247;26;20080;-72
2024/04/09 09:31:26;;;;;;;;;;;;;;;11.23;77.41;96264.16;5504207;26;19961;-75
2024/04/09 09:33:55;;;;;;;;;;;;;;;11.24;76.94;96265.78;5504027;26;19958;-73
2024/04/09 09:36:22;;;;;;;;;;;;;;;11.26;77.13;96277.66;5503286;26;20106;-71
2024/04/09 09:38:48;;;;;;;;;;;;;;;11.22;74.34;96271.25;5504028;26;19971;-73
2024/04/09 09:41:15;;;;;;;;;;;;;;;11.20;77.19;96265.44;5503066;26;19953;-73
2024/04/09 09:43:42;;;;;;;;;;;;;;;11.18;76.17;96275.34;5503978;26;19970;-73
2024/04/09 09:46:11;;;;;;;;;;;;;;;11.24;77.90;96286.78;5503127;26;19972;-73
2024/04/09 09:48:38;;;;;;;;;;;;;;;11.29;76.39;96289.50;5503332;26;19975;-75
2024/04/09 09:51:04;;;;;;;;;;;;;;;11.33;76.77;96296.72;5503912;26;20071;-73
2024/04/09 09:53:30;;;;;;;;;;;;;;;11.32;75.80;96300.38;5503831;26;19951;-73
2024/04/09 09:55:59;;;;;;;;;;;;;;;11.20;74.99;96306.63;5503776;26;19977;-67
2024/04/09 09:58:28;;;;;;;;;;;;;;;11.08;76.67;96322.34;5503712;26;19967;-67
2024/04/09 10:00:54;;;;;;;;;;;;;;;11.02;76.89;96331.09;5503481;26;19968;-67
2024/04/09 10:03:20;;;;;;;;;;;;;;;10.90;76.36;96323.19;5503688;26;19942;-68
2024/04/09 10:05:46;;;;;;;;;;;;;;;10.85;76.84;96320.44;5503606;26;19958;-68
2024/04/09 10:08:25;;;;;;;;;;;;;;;10.83;76.72;96331.13;5503564;26;20081;-68
2024/04/09 10:10:51;;;;;;;;;;;;;;;10.83;78.08;96348.69;5503536;26;20177;-68
2024/04/09 10:13:24;;;;;;;;;;;;;;;10.83;79.15;96349.50;5503421;26;19994;-70
2024/04/09 10:15:50;;;;;;;;;;;;;;;10.86;78.79;96345.66;5501524;26;19955;-74
2024/04/09 10:18:33;;;;;;;;;;;;;;;10.89;78.42;96340.75;5503448;26;19963;-75
2024/04/09 10:20:59;;;;;;;;;;;;;;;10.99;79.39;96340.22;5503354;26;19956;-75
2024/04/09 10:23:25;;;;;;;;;;;;;;;11.06;77.51;96334.88;5503364;26;19953;-75
2024/04/09 10:25:54;;;;;;;;;;;;;;;11.09;77.77;96339.69;5503261;26;19981;-75
2024/04/09 10:28:28;;;;;;;;;;;;;;;11.18;78.61;96340.97;5503209;26;19957;-75
2024/04/09 10:30:54;;;;;;;;;;;;;;;11.25;76.74;96338.25;5502690;26;19962;-69
2024/04/09 10:33:26;;;;;;;;;;;;;;;11.25;75.05;96325.91;5503165;26;19962;-70
2024/04/09 10:35:54;;;;;;;;;;;;;;;11.24;76.16;96339.28;5503150;26;19969;-73
2024/04/09 10:38:22;;;;;;;;;;;;;;;11.22;73.28;96333.44;5503081;26;19961;-72
2024/04/09 10:40:49;;;;;;;;;;;;;;;11.17;74.85;96341.97;5502988;26;19971;-73
2024/04/09 10:43:15;;;;;;;;;;;;;;;11.03;74.90;96344.00;5503036;26;19951;-73
2024/04/09 10:45:41;;;;;;;;;;;;;;;10.97;76.04;96365.88;5502918;26;20174;-73
2024/04/09 10:48:07;;;;;;;;;;;;;;;10.89;74.06;96355.69;5502889;26;19959;-73
2024/04/09 10:50:33;;;;;;;;;;;;;;;10.77;74.37;96355.63;5502848;26;20081;-70
2024/04/09 10:52:59;;;;;;;;;;;;;;;10.66;75.28;96354.56;5501962;26;19967;-69
2024/04/09 10:55:25;;;;;;;;;;;;;;;10.66;75.12;96365.03;5502657;26;19993;-70
2024/04/09 10:57:52;;;;;;;;;;;;;;;10.72;75.71;96387.78;5500793;26;20065;-70
2024/04/09 11:00:18;;;;;;;;;;;;;;;10.68;74.72;96393.69;5502710;26;19968;-70
2024/04/09 11:02:44;;;;;;;;;;;;;;;10.56;75.88;96391.81;5501723;26;19975;-70
2024/04/09 11:05:11;;;;;;;;;;;;;;;10.51;76.90;96419.69;5502587;26;19951;-69
2024/04/09 11:07:37;;;;;;;;;;;;;;;10.48;76.79;96415.69;5502575;26;20094;-69
2024/04/09 11:10:07;;;;;;;;;;;;;;;10.44;77.85;96417.13;5502380;26;19975;-72
2024/04/09 11:12:35;;;;;;;;;;;;;;;10.42;77.80;96415.75;5501607;26;19948;-70
2024/04/09 11:15:01;;;;;;;;;;;;;;;10.34;77.45;96430.72;5502304;26;20094;-70
2024/04/09 11:17:27;;;;;;;;;;;;;;;10.27;78.84;96442.28;5501412;26;19996;-70
2024/04/09 11:20:05;;;;;;;;;;;;;;;10.18;79.04;96451.41;5502274;26;19954;-70
2024/04/09 11:22:32;;;;;;;;;;;;;;;10.13;78.35;96437.13;5502347;26;19966;-70
2024/04/09 11:24:59;;;;;;;;;;;;;;;10.10;77.69;96437.59;5502160;26;19954;-70
2024/04/09 11:27:25;;;;;;;;;;;;;;;10.10;77.96;96428.91;5504892;26;19958;-69
2024/04/09 11:29:51;;;;;;;;;;;;;;;10.06;77.37;96440.84;5505886;26;20016;-73
2024/04/09 11:32:17;;;;;;;;;;;;;;;10.01;77.30;96451.16;5505912;26;19945;-72
2024/04/09 11:34:43;;;;;;;;;;;;;;;9.99;76.71;96466.28;5505753;26;19953;-73
2024/04/09 11:37:09;;;;;;;;;;;;;;;10.00;77.51;96460.84;5505792;26;19948;-73
2024/04/09 11:39:36;;;;;;;;;;;;;;;10.06;77.57;96478.31;5505841;26;20074;-73
2024/04/09 11:42:02;;;;;;;;;;;;;;;10.11;77.74;96475.84;5505726;26;19969;-72
2024/04/09 11:44:28;;;;;;;;;;;;;;;10.09;77.30;96483.13;5505753;26;19971;-73
2024/04/09 11:46:54;;;;;;;;;;;;;;;10.07;77.37;96495.63;5504854;26;19948;-74
2024/04/09 11:49:20;;;;;;;;;;;;;;;10.07;78.18;96508.75;5505705;26;19985;-72
2024/04/09 11:51:46;;;;;;;;;;;;;;;10.05;78.43;96507.34;5505531;26;19951;-72
2024/04/09 11:54:12;;;;;;;;;;;;;;;10.02;78.64;96511.22;5505507;26;19958;-73
2024/04/09 11:56:41;;;;;;;;;;;;;;;9.97;80.03;96516.25;5505600;26;19949;-73
2024/04/09 11:59:07;;;;;;;;;;;;;;;9.94;79.86;96522.75;5505512;26;20072;-73
2024/04/09 12:01:34;;;;;;;;;;;;;;;9.88;83.60;96525.41;5505460;26;19948;-72
2024/04/09 12:04:00;;;;;;;;;;;;;;;9.81;84.72;96535.13;5505398;26;19984;-68
2024/04/09 12:06:28;;;;;;;;;;;;;;;9.74;85.04;96543.00;5505406;26;20077;-67
2024/04/09 12:08:54;;;;;;;;;;;;;;;9.71;85.49;96548.66;5505212;26;19971;-68
2024/04/09 12:11:19;;;;;;;;;;;;;;;9.67;86.57;96561.38;5505340;26;19949;-67
2024/04/09 12:13:45;;;;;;;;;;;;;;;9.63;84.38;96552.31;5505157;26;19988;-67
2024/04/09 12:16:11;;;;;;;;;;;;;;;9.65;86.38;96557.34;5505142;26;19958;-68
2024/04/09 12:18:37;;;;;;;;;;;;;;;9.64;86.39;96548.72;5505057;26;19943;-68
2024/04/09 12:21:03;;;;;;;;;;;;;;;9.70;84.50;96526.09;5505050;26;19956;-67
2024/04/09 12:23:29;;;;;;;;;;;;;;;9.69;85.25;96527.13;5505164;26;20181;-76
2024/04/09 12:25:55;;;;;;;;;;;;;;;9.68;83.71;96522.88;5505096;26;20016;-68
2024/04/09 12:28:21;;;;;;;;;;;;;;;9.56;81.72;96522.75;5504989;26;19987;-68
2024/04/09 12:30:47;;;;;;;;;;;;;;;9.49;82.29;96514.13;5504430;26;19953;-68
2024/04/09 12:33:13;;;;;;;;;;;;;;;9.44;82.32;96517.38;5504998;26;20015;-68
2024/04/09 12:35:39;;;;;;;;;;;;;;;9.41;82.88;96532.69;5504899;26;20013;-68
2024/04/09 12:38:05;;;;;;;;;;;;;;;9.42;81.60;96526.44;5504096;26;19972;-67
2024/04/09 12:40:31;;;;;;;;;;;;;;;9.39;79.97;96524.25;5504024;26;19990;-70
2024/04/09 12:42:57;;;;;;;;;;;;;;;9.41;80.70;96533.50;5504856;26;19986;-74
2024/04/09 12:45:23;;;;;;;;;;;;;;;9.43;79.67;96526.25;5503927;26;19954;-69